Time;durP1;ratioP1;P1;durP2;ratioP2;P2;SDS_P1;SDS_P2;PMS_P1;PMS_P2;Temp;Humidity;BMP_temperature;BMP_pressure;BME280_temperature;BME280_humidity;BME280_pressure;Samples;Min_cycle;Max_cycle;Signal;HPM_P1;HPM_P2
2023/05/29 00:00:38;;;;;;;14.48;3.25;;;;;;;14.08;84.03;102308.97;4994471;28;20050;-70
2023/05/29 00:03:04;;;;;;;11.30;2.72;;;;;;;14.13;81.72;102310.25;4987754;28;20053;-67
2023/05/29 00:05:32;;;;;;;12.98;2.80;;;;;;;14.07;83.43;102317.84;4989841;28;20061;-68
2023/05/29 00:07:58;;;;;;;13.00;2.38;;;;;;;14.00;82.43;102313.09;4990039;28;20140;-68
2023/05/29 00:10:25;;;;;;;15.07;3.80;;;;;;;13.92;82.14;102318.22;4982203;28;20060;-67
2023/05/29 00:12:51;;;;;;;11.48;2.70;;;;;;;13.90;82.90;102317.50;4994524;28;20122;-69
2023/05/29 00:15:18;;;;;;;15.25;2.72;;;;;;;13.85;83.28;102320.50;4987581;28;20128;-68
2023/05/29 00:17:45;;;;;;;13.13;2.72;;;;;;;13.85;82.81;102322.31;4980805;28;20073;-68
2023/05/29 00:20:12;;;;;;;11.43;2.58;;;;;;;13.79;82.74;102331.59;4980974;28;20054;-69
2023/05/29 00:22:39;;;;;;;14.75;2.63;;;;;;;13.73;84.19;102324.19;4982085;28;20132;-68
2023/05/29 00:25:06;;;;;;;13.90;2.70;;;;;;;13.68;84.54;102336.09;4990906;28;20053;-67
2023/05/29 00:27:33;;;;;;;13.45;2.15;;;;;;;13.63;83.47;102331.22;5001630;28;20057;-68
2023/05/29 00:30:01;;;;;;;14.50;2.65;;;;;;;13.57;84.45;102339.66;4988825;28;20752;-68
2023/05/29 00:32:27;;;;;;;18.33;3.30;;;;;;;13.49;84.59;102342.94;4997496;28;20124;-70
2023/05/29 00:34:55;;;;;;;14.80;3.22;;;;;;;13.52;82.94;102336.56;5005430;28;20046;-67
2023/05/29 00:37:22;;;;;;;9.77;2.03;;;;;;;13.55;81.45;102342.41;4992862;28;20128;-70
2023/05/29 00:39:49;;;;;;;12.85;2.92;;;;;;;13.51;83.91;102341.00;4990111;28;20142;-68
2023/05/29 00:42:15;;;;;;;14.48;3.00;;;;;;;13.47;82.36;102331.69;4989746;28;20708;-68
2023/05/29 00:44:42;;;;;;;12.15;2.50;;;;;;;13.44;82.37;102340.66;4996675;28;20064;-70
2023/05/29 00:47:08;;;;;;;12.88;3.20;;;;;;;13.42;82.67;102339.13;4986518;28;20811;-68
2023/05/29 00:49:37;;;;;;;15.70;2.95;;;;;;;13.38;82.33;102343.81;4994772;28;20060;-68
2023/05/29 00:52:09;;;;;;;15.60;2.55;;;;;;;13.31;82.88;102344.44;4990527;28;20081;-68
2023/05/29 00:54:36;;;;;;;12.35;2.30;;;;;;;13.25;84.15;102337.88;4982533;28;20062;-68
2023/05/29 00:57:05;;;;;;;11.07;2.33;;;;;;;13.20;83.86;102345.31;4987027;28;20133;-68
2023/05/29 00:59:33;;;;;;;16.45;2.47;;;;;;;13.11;85.79;102343.44;4996218;28;20077;-68
2023/05/29 01:02:02;;;;;;;14.15;2.72;;;;;;;13.10;83.77;102345.25;4986828;28;20507;-69
2023/05/29 01:04:29;;;;;;;15.27;2.75;;;;;;;13.11;84.06;102353.97;4976354;28;20132;-69
2023/05/29 01:06:57;;;;;;;13.23;2.25;;;;;;;13.12;84.02;102358.28;4986952;28;20046;-68
2023/05/29 01:09:23;;;;;;;16.50;2.70;;;;;;;13.05;85.20;102358.81;4978546;28;20058;-70
2023/05/29 01:12:09;;;;;;;10.07;2.42;;;;;;;12.96;85.96;102358.72;4995309;28;20128;-67
2023/05/29 01:14:38;;;;;;;21.70;3.55;;;;;;;12.97;86.29;102357.72;4990395;28;20097;-67
2023/05/29 01:17:17;;;;;;;19.38;3.85;;;;;;;12.97;84.26;102363.84;4980047;28;20491;-67
2023/05/29 01:20:05;;;;;;;11.98;2.45;;;;;;;12.89;87.16;102366.25;4992263;28;20689;-68
2023/05/29 01:23:03;;;;;;;14.73;2.63;;;;;;;12.91;86.32;102355.59;4989419;28;20062;-68
2023/05/29 01:26:07;;;;;;;13.10;3.60;;;;;;;13.00;82.49;102360.97;4991269;28;20248;-68
2023/05/29 01:28:48;;;;;;;12.90;2.60;;;;;;;12.94;86.77;102373.81;4988559;28;20054;-68
2023/05/29 01:31:19;;;;;;;14.20;2.92;;;;;;;12.90;85.57;102372.34;4995580;28;20053;-68
2023/05/29 01:33:58;;;;;;;12.95;2.45;;;;;;;12.83;86.79;102378.13;4971906;28;20054;-69
2023/05/29 01:36:26;;;;;;;16.85;2.90;;;;;;;12.83;86.42;102372.03;4999072;28;20064;-66
2023/05/29 01:38:54;;;;;;;12.57;2.20;;;;;;;12.75;87.59;102374.44;4982669;28;20080;-67
2023/05/29 01:41:22;;;;;;;16.60;2.75;;;;;;;12.72;87.92;102370.25;4997675;28;20053;-67
2023/05/29 01:43:50;;;;;;;10.83;2.27;;;;;;;12.70;88.51;102389.75;4991695;28;20093;-67
2023/05/29 01:46:18;;;;;;;12.93;2.55;;;;;;;12.64;88.77;102386.66;4993771;28;20469;-66
2023/05/29 01:48:45;;;;;;;16.80;3.20;;;;;;;12.63;88.99;102384.97;5001517;28;20145;-67
2023/05/29 01:51:12;;;;;;;13.70;2.45;;;;;;;12.63;88.16;102384.16;4994448;28;20550;-66
2023/05/29 01:53:42;;;;;;;11.45;2.38;;;;;;;12.61;89.56;102379.00;4988266;28;20053;-67
2023/05/29 01:56:09;;;;;;;18.58;3.00;;;;;;;12.55;89.90;102378.66;4998800;28;20061;-67
2023/05/29 01:58:37;;;;;;;10.15;2.33;;;;;;;12.49;89.45;102379.16;4996909;28;20045;-66
2023/05/29 02:01:06;;;;;;;17.27;2.70;;;;;;;12.51;90.46;102377.22;4996518;28;20133;-67
2023/05/29 02:03:33;;;;;;;11.55;2.28;;;;;;;12.49;91.09;102373.88;4989506;28;20580;-67
2023/05/29 02:06:01;;;;;;;10.10;2.20;;;;;;;12.45;90.21;102374.09;4991042;28;20056;-66
2023/05/29 02:08:27;;;;;;;11.50;2.13;;;;;;;12.44;89.90;102377.69;4993777;28;20565;-68
2023/05/29 02:10:54;;;;;;;18.50;3.20;;;;;;;12.42;90.60;102369.06;5000124;28;20068;-67
2023/05/29 02:13:21;;;;;;;14.65;3.20;;;;;;;12.40;90.17;102365.72;4992440;28;20054;-67
2023/05/29 02:15:47;;;;;;;15.02;3.25;;;;;;;12.41;90.28;102371.84;4996314;28;20058;-68
2023/05/29 02:18:17;;;;;;;12.07;2.45;;;;;;;12.39;90.26;102374.59;4983190;28;20054;-66
2023/05/29 02:20:44;;;;;;;12.30;2.10;;;;;;;12.42;88.56;102378.78;4984395;28;20776;-66
2023/05/29 02:23:10;;;;;;;13.88;2.65;;;;;;;12.32;91.48;102369.94;4993958;28;20054;-66
2023/05/29 02:25:38;;;;;;;12.25;2.25;;;;;;;12.25;90.05;102375.69;4976963;28;20068;-67
2023/05/29 02:28:05;;;;;;;10.40;1.95;;;;;;;12.24;90.78;102376.63;5001266;28;20294;-67
2023/05/29 02:30:31;;;;;;;13.32;2.28;;;;;;;12.22;93.15;102385.59;4992148;28;20054;-69
2023/05/29 02:32:58;;;;;;;14.02;2.20;;;;;;;12.14;93.12;102372.19;4980457;28;20050;-70
2023/05/29 02:35:24;;;;;;;13.82;2.33;;;;;;;12.15;92.51;102374.72;4999579;28;20045;-70
2023/05/29 02:37:52;;;;;;;14.27;2.55;;;;;;;12.13;93.51;102373.97;5001653;28;20050;-68
2023/05/29 02:40:19;;;;;;;14.55;2.95;;;;;;;12.04;92.62;102372.06;4995983;28;20058;-68
2023/05/29 02:42:46;;;;;;;16.95;3.30;;;;;;;12.01;94.79;102361.78;4984221;28;20082;-68
2023/05/29 02:45:12;;;;;;;12.93;2.15;;;;;;;11.99;91.95;102358.44;4997560;28;20168;-70
2023/05/29 02:47:39;;;;;;;19.20;3.00;;;;;;;11.91;94.47;102360.81;4980498;28;20061;-70
2023/05/29 02:50:06;;;;;;;15.70;2.30;;;;;;;11.93;92.88;102369.44;4979192;28;20104;-70
2023/05/29 02:52:32;;;;;;;15.88;2.90;;;;;;;11.97;94.12;102373.50;4976947;28;20664;-70
2023/05/29 02:54:59;;;;;;;13.18;2.40;;;;;;;11.92;94.78;102375.63;5003981;28;20049;-70
2023/05/29 02:57:26;;;;;;;14.85;2.30;;;;;;;11.90;94.70;102370.50;4980522;28;20060;-68
2023/05/29 02:59:52;;;;;;;15.75;2.60;;;;;;;11.90;94.42;102369.66;4979842;28;20104;-68
2023/05/29 03:02:19;;;;;;;15.82;2.42;;;;;;;11.81;95.79;102368.53;4994798;28;20713;-68
2023/05/29 03:04:46;;;;;;;10.70;2.30;;;;;;;11.82;93.69;102375.47;4995335;28;20053;-68
2023/05/29 03:07:12;;;;;;;15.45;2.95;;;;;;;11.79;95.20;102383.59;5002808;28;20077;-68
2023/05/29 03:09:39;;;;;;;14.85;2.53;;;;;;;11.76;96.70;102394.31;4985427;28;20050;-68
2023/05/29 03:12:06;;;;;;;11.63;2.20;;;;;;;11.77;95.30;102388.13;5000364;28;20054;-70
2023/05/29 03:14:35;;;;;;;14.13;2.95;;;;;;;11.76;95.12;102389.06;4992582;28;20577;-68
2023/05/29 03:17:07;;;;;;;13.00;2.22;;;;;;;11.76;95.22;102394.31;4994673;28;20526;-68
2023/05/29 03:19:34;;;;;;;12.82;2.42;;;;;;;11.65;96.55;102388.09;4995500;28;20053;-67
2023/05/29 03:22:00;;;;;;;12.98;2.42;;;;;;;11.64;95.75;102391.69;4991429;28;20057;-68
2023/05/29 03:24:27;;;;;;;8.40;1.90;;;;;;;11.66;95.88;102392.41;4995516;28;20123;-70
2023/05/29 03:26:54;;;;;;;10.98;2.05;;;;;;;11.62;95.66;102393.59;4985926;28;20136;-70
2023/05/29 03:29:21;;;;;;;12.32;2.20;;;;;;;11.63;95.37;102392.63;4992644;28;20499;-68
2023/05/29 03:31:47;;;;;;;12.82;2.40;;;;;;;11.62;96.56;102390.97;4984130;28;20045;-68
2023/05/29 03:34:14;;;;;;;13.43;2.55;;;;;;;11.60;96.83;102392.00;4994869;28;20065;-69
2023/05/29 03:36:41;;;;;;;10.40;2.05;;;;;;;11.61;97.38;102393.69;4999214;28;20077;-68
2023/05/29 03:39:07;;;;;;;14.57;2.45;;;;;;;11.56;96.06;102390.56;4977895;28;20056;-70
2023/05/29 03:41:34;;;;;;;12.13;2.30;;;;;;;11.54;97.90;102395.09;4985536;28;20085;-69
2023/05/29 03:44:00;;;;;;;10.52;2.28;;;;;;;11.45;98.33;102383.50;4984279;28;20065;-69
2023/05/29 03:46:27;;;;;;;11.75;2.42;;;;;;;11.45;96.83;102388.75;5007963;23;20079;-69
2023/05/29 03:48:54;;;;;;;13.30;2.45;;;;;;;11.42;97.09;102383.72;4980909;28;20460;-69
2023/05/29 03:51:20;;;;;;;15.63;2.55;;;;;;;11.42;96.91;102389.78;4980285;28;20175;-69
2023/05/29 03:53:47;;;;;;;17.23;3.40;;;;;;;11.38;98.04;102398.84;4982178;28;20556;-69
2023/05/29 03:56:13;;;;;;;16.30;2.80;;;;;;;11.31;99.98;102392.41;4975056;28;20052;-69
2023/05/29 03:58:40;;;;;;;16.05;2.92;;;;;;;11.34;97.99;102402.66;4967892;28;20128;-70
2023/05/29 04:01:07;;;;;;;12.90;2.95;;;;;;;11.39;97.25;102404.97;4947841;28;20062;-68
2023/05/29 04:03:33;;;;;;;14.07;2.83;;;;;;;11.40;97.73;102399.59;4982733;28;20514;-70
2023/05/29 04:06:00;;;;;;;15.18;2.50;;;;;;;11.40;97.61;102410.09;4985654;28;20053;-70
2023/05/29 04:08:26;;;;;;;13.25;2.67;;;;;;;11.43;97.36;102402.00;4975337;28;20058;-69
2023/05/29 04:10:55;;;;;;;11.82;3.05;;;;;;;11.48;96.17;102404.28;4974770;28;20053;-69
2023/05/29 04:13:22;;;;;;;16.50;2.20;;;;;;;11.50;96.39;102409.41;4980123;28;20149;-70
2023/05/29 04:15:48;;;;;;;11.68;2.42;;;;;;;11.57;93.70;102418.53;4985640;28;20077;-69
2023/05/29 04:18:15;;;;;;;15.00;2.80;;;;;;;11.56;95.44;102417.69;4980855;28;20101;-69
2023/05/29 04:20:42;;;;;;;13.85;2.13;;;;;;;11.59;93.73;102414.00;4985208;28;20104;-70
2023/05/29 04:23:08;;;;;;;16.08;2.67;;;;;;;11.64;95.52;102420.59;4979342;28;20105;-70
2023/05/29 04:25:36;;;;;;;16.77;2.45;;;;;;;11.64;94.69;102427.63;4978000;28;20142;-70
2023/05/29 04:28:03;;;;;;;10.93;2.40;;;;;;;11.67;94.18;102409.00;4986282;28;20050;-69
2023/05/29 04:30:30;;;;;;;19.40;3.28;;;;;;;11.66;95.05;102405.56;4981558;28;20058;-69
2023/05/29 04:32:57;;;;;;;19.08;2.60;;;;;;;11.69;93.55;102409.72;4986475;28;20140;-69
2023/05/29 04:35:24;;;;;;;19.45;3.45;;;;;;;11.65;94.36;102403.03;4983330;28;20054;-70
2023/05/29 04:37:50;;;;;;;12.68;2.58;;;;;;;11.65;95.03;102403.03;4976825;28;20057;-69
2023/05/29 04:40:17;;;;;;;15.55;2.63;;;;;;;11.61;94.96;102399.78;4987202;28;20137;-70
2023/05/29 04:42:46;;;;;;;17.10;2.90;;;;;;;11.74;93.36;102404.97;4982176;28;20058;-69
2023/05/29 04:45:13;;;;;;;15.13;2.58;;;;;;;11.74;93.26;102406.75;4993939;28;20308;-70
2023/05/29 04:47:43;;;;;;;14.55;2.22;;;;;;;11.74;93.13;102415.50;4975235;28;20050;-70
2023/05/29 04:50:14;;;;;;;14.00;2.28;;;;;;;11.77;91.33;102432.81;4982661;28;20046;-69
2023/05/29 04:52:41;;;;;;;20.27;3.45;;;;;;;11.74;93.44;102446.19;4957718;28;20053;-68
2023/05/29 04:55:08;;;;;;;10.77;2.33;;;;;;;11.79;92.45;102436.16;4982264;28;20134;-69
2023/05/29 04:57:35;;;;;;;15.15;2.65;;;;;;;11.78;91.69;102443.22;4969896;28;20066;-69
2023/05/29 05:00:07;;;;;;;21.25;2.55;;;;;;;11.75;91.71;102446.06;4960172;28;20065;-69
2023/05/29 05:02:33;;;;;;;15.85;2.58;;;;;;;11.73;92.05;102445.34;4981308;28;20129;-70
2023/05/29 05:05:00;;;;;;;12.43;2.15;;;;;;;11.77;90.56;102446.78;4956938;28;20136;-70
2023/05/29 05:07:26;;;;;;;12.63;2.67;;;;;;;11.76;92.61;102444.28;4980417;28;20059;-69
2023/05/29 05:09:53;;;;;;;16.60;2.70;;;;;;;11.73;92.83;102450.59;4967811;28;20133;-69
2023/05/29 05:12:19;;;;;;;17.02;2.38;;;;;;;11.77;90.99;102448.59;4968097;28;20574;-69
2023/05/29 05:14:46;;;;;;;15.35;2.55;;;;;;;11.79;92.42;102457.19;4971364;28;20126;-68
2023/05/29 05:17:12;;;;;;;17.35;2.78;;;;;;;11.78;92.63;102459.00;4976164;28;20051;-69
2023/05/29 05:19:39;;;;;;;13.00;2.88;;;;;;;11.76;90.38;102446.91;4973684;28;20201;-68
2023/05/29 05:22:05;;;;;;;11.02;2.85;;;;;;;11.76;90.07;102449.53;4969371;28;20624;-69
2023/05/29 05:24:32;;;;;;;12.57;2.15;;;;;;;11.77;90.29;102451.22;4986980;28;20086;-69
2023/05/29 05:26:58;;;;;;;14.10;2.33;;;;;;;11.82;91.38;102455.19;4969578;28;20051;-69
2023/05/29 05:29:25;;;;;;;13.90;2.80;;;;;;;11.79;91.29;102444.06;4982359;28;20058;-69
2023/05/29 05:31:53;;;;;;;14.70;2.58;;;;;;;11.83;90.36;102462.09;4973352;28;20474;-69
2023/05/29 05:34:20;;;;;;;12.05;2.38;;;;;;;11.84;88.80;102452.44;4980249;28;20414;-70
2023/05/29 05:36:47;;;;;;;19.10;3.42;;;;;;;11.83;90.17;102443.69;4978655;28;20446;-69
2023/05/29 05:39:13;;;;;;;15.48;2.45;;;;;;;11.87;88.53;102442.50;4973864;28;20169;-69
2023/05/29 05:41:40;;;;;;;12.38;2.72;;;;;;;11.97;86.88;102447.94;4979044;28;20126;-69
2023/05/29 05:44:06;;;;;;;16.45;3.17;;;;;;;11.96;87.63;102453.34;4980483;28;20481;-69
2023/05/29 05:46:33;;;;;;;13.30;2.70;;;;;;;12.01;86.83;102459.91;4972493;28;20783;-69
2023/05/29 05:49:00;;;;;;;13.43;2.40;;;;;;;12.01;87.05;102461.72;4983580;28;20056;-69
2023/05/29 05:51:27;;;;;;;16.70;2.30;;;;;;;12.02;87.27;102458.16;4947836;28;20090;-70
2023/05/29 05:53:53;;;;;;;10.02;2.15;;;;;;;12.09;86.23;102464.59;4955393;28;20057;-70
2023/05/29 05:56:20;;;;;;;10.80;2.30;;;;;;;12.07;85.19;102467.38;4974917;28;20069;-69
2023/05/29 05:58:46;;;;;;;16.15;2.45;;;;;;;12.07;85.67;102451.59;4983773;28;20073;-70
2023/05/29 06:01:14;;;;;;;16.30;2.63;;;;;;;12.06;85.81;102464.84;4986171;28;20140;-68
2023/05/29 06:03:40;;;;;;;14.43;2.40;;;;;;;12.08;86.34;102465.56;4978437;28;20089;-69
2023/05/29 06:06:08;;;;;;;15.05;1.88;;;;;;;12.18;83.80;102471.81;4988722;28;20520;-68
2023/05/29 06:08:35;;;;;;;14.55;2.38;;;;;;;12.16;84.11;102470.25;4974770;28;20065;-69
2023/05/29 06:11:01;;;;;;;15.27;1.70;;;;;;;12.23;81.26;102460.91;4973598;28;20093;-69
2023/05/29 06:13:28;;;;;;;12.57;2.05;;;;;;;12.32;82.33;102469.91;4974740;28;20478;-69
2023/05/29 06:15:54;;;;;;;17.75;2.17;;;;;;;12.36;82.18;102460.84;4983517;28;20073;-71
2023/05/29 06:18:21;;;;;;;12.65;2.25;;;;;;;12.37;80.86;102465.97;4987468;28;20363;-69
2023/05/29 06:20:47;;;;;;;17.25;4.13;;;;;;;12.41;81.70;102470.06;4981061;28;20058;-69
2023/05/29 06:23:14;;;;;;;17.58;2.45;;;;;;;12.46;80.76;102472.31;4981091;28;20104;-69
2023/05/29 06:25:41;;;;;;;11.77;2.28;;;;;;;12.49;81.18;102484.41;4975885;28;20051;-69
2023/05/29 06:28:08;;;;;;;8.50;1.60;;;;;;;12.53;79.25;102476.16;4985163;28;20442;-69
2023/05/29 06:30:35;;;;;;;11.63;2.13;;;;;;;12.57;79.51;102476.78;4980765;28;20483;-69
2023/05/29 06:33:02;;;;;;;12.57;2.03;;;;;;;12.59;79.46;102475.69;4984518;28;20129;-69
2023/05/29 06:35:28;;;;;;;10.98;2.30;;;;;;;12.64;78.77;102470.03;4984973;28;20080;-70
2023/05/29 06:37:55;;;;;;;11.13;1.85;;;;;;;12.71;79.35;102480.97;4954854;28;20732;-70
2023/05/29 06:40:22;;;;;;;11.57;2.33;;;;;;;12.74;79.06;102484.19;4988232;28;20458;-69
2023/05/29 06:42:49;;;;;;;10.68;1.88;;;;;;;12.73;77.97;102473.78;4960051;28;20050;-70
2023/05/29 06:45:15;;;;;;;13.27;2.22;;;;;;;12.76;76.95;102479.63;4985716;28;20466;-70
2023/05/29 06:47:42;;;;;;;13.55;2.10;;;;;;;12.77;76.31;102483.94;4979100;28;20078;-70
2023/05/29 06:50:09;;;;;;;7.07;1.63;;;;;;;12.77;76.12;102478.66;4965801;28;20050;-71
2023/05/29 06:52:36;;;;;;;11.23;2.15;;;;;;;12.81;74.88;102480.09;4979454;28;20058;-70
2023/05/29 06:55:03;;;;;;;12.48;2.42;;;;;;;12.88;74.17;102479.63;4964660;28;20050;-71
2023/05/29 06:57:30;;;;;;;8.98;1.92;;;;;;;12.92;75.60;102484.53;4988552;28;20144;-70
2023/05/29 06:59:57;;;;;;;11.98;2.00;;;;;;;12.99;75.26;102477.81;4981227;28;20137;-70
2023/05/29 07:02:24;;;;;;;13.88;2.30;;;;;;;13.08;74.58;102480.69;4966603;28;20559;-70
2023/05/29 07:04:51;;;;;;;9.13;1.85;;;;;;;13.11;74.87;102483.91;4975499;28;20105;-71
2023/05/29 07:07:18;;;;;;;9.80;1.85;;;;;;;13.13;73.85;102489.91;4948860;28;20078;-71
2023/05/29 07:09:44;;;;;;;13.70;2.20;;;;;;;13.16;74.18;102494.09;4983412;28;20051;-70
2023/05/29 07:12:12;;;;;;;13.82;2.47;;;;;;;13.19;73.26;102485.91;4964316;28;20054;-69
2023/05/29 07:14:41;;;;;;;11.32;2.15;;;;;;;13.30;73.43;102495.66;4954708;28;20530;-72
2023/05/29 07:17:08;;;;;;;10.05;2.08;;;;;;;13.34;73.44;102491.81;4974828;28;20051;-70
2023/05/29 07:19:34;;;;;;;11.70;2.00;;;;;;;13.37;73.45;102489.75;4969616;28;20082;-71
2023/05/29 07:22:04;;;;;;;10.25;2.28;;;;;;;13.39;73.05;102490.47;4958748;28;20081;-72
2023/05/29 07:24:30;;;;;;;11.98;1.60;;;;;;;13.50;71.44;102501.94;4984819;28;20058;-71
2023/05/29 07:26:57;;;;;;;13.23;2.17;;;;;;;13.57;69.41;102497.84;4980392;28;20074;-71
2023/05/29 07:29:24;;;;;;;10.25;2.20;;;;;;;13.64;69.79;102499.88;4971128;28;20105;-69
2023/05/29 07:31:53;;;;;;;12.57;2.15;;;;;;;13.70;69.84;102501.16;4969132;28;20050;-70
2023/05/29 07:34:19;;;;;;;7.15;1.70;;;;;;;13.77;69.69;102512.88;4978236;28;20446;-73
2023/05/29 07:37:04;;;;;;;9.68;2.47;;;;;;;13.82;69.04;102502.78;4983430;28;20046;-71
2023/05/29 07:39:31;;;;;;;10.63;2.50;;;;;;;13.88;69.15;102498.81;4964558;28;20093;-71
2023/05/29 07:42:02;;;;;;;9.68;1.90;;;;;;;13.94;68.29;102500.94;4968162;28;20140;-71
2023/05/29 07:44:28;;;;;;;10.60;2.05;;;;;;;13.95;68.35;102505.22;4979858;28;20054;-72
2023/05/29 07:46:55;;;;;;;7.82;2.17;;;;;;;14.00;68.45;102505.69;4966378;28;20081;-70
2023/05/29 07:49:24;;;;;;;10.70;2.03;;;;;;;14.09;67.83;102501.44;4956896;28;20400;-70
2023/05/29 07:51:51;;;;;;;8.57;2.00;;;;;;;14.12;67.37;102501.19;4969889;28;20061;-71
2023/05/29 07:54:20;;;;;;;7.43;1.40;;;;;;;14.26;67.23;102509.75;4980143;28;20065;-71
2023/05/29 07:56:49;;;;;;;9.10;1.77;;;;;;;14.34;67.33;102502.03;4954432;28;20046;-73
2023/05/29 07:59:16;;;;;;;8.10;1.98;;;;;;;14.40;68.13;102509.41;4976609;28;20054;-72
2023/05/29 08:01:44;;;;;;;7.72;1.70;;;;;;;14.43;69.00;102504.72;4986511;28;20058;-71
2023/05/29 08:04:11;;;;;;;10.82;1.92;;;;;;;14.50;67.44;102510.28;4980413;28;20062;-72
2023/05/29 08:06:42;;;;;;;10.40;1.80;;;;;;;14.60;66.03;102508.59;4986517;28;20050;-71
2023/05/29 08:09:09;;;;;;;9.77;2.88;;;;;;;14.66;66.16;102515.13;4979750;28;20050;-70
2023/05/29 08:11:37;;;;;;;6.10;1.43;;;;;;;14.71;66.84;102512.13;4967035;28;20847;-71
2023/05/29 08:14:03;;;;;;;8.07;1.73;;;;;;;14.85;68.08;102510.91;4977506;28;20073;-71
2023/05/29 08:16:30;;;;;;;11.20;2.42;;;;;;;14.89;66.86;102512.31;4985949;28;20133;-71
2023/05/29 08:18:56;;;;;;;9.00;1.70;;;;;;;15.03;66.46;102509.28;4980785;28;20121;-71
2023/05/29 08:21:25;;;;;;;10.70;2.17;;;;;;;15.18;66.24;102512.41;4968763;28;20050;-73
2023/05/29 08:23:52;;;;;;;11.95;2.95;;;;;;;15.28;66.46;102517.72;4983874;28;20268;-73
2023/05/29 08:26:18;;;;;;;10.45;3.08;;;;;;;15.46;65.06;102534.56;4972809;28;20144;-73
2023/05/29 08:28:45;;;;;;;10.93;2.53;;;;;;;15.61;63.75;102524.44;4981248;28;20050;-71
2023/05/29 08:31:11;;;;;;;8.43;2.05;;;;;;;15.83;63.01;102518.06;4977535;28;21083;-71
2023/05/29 08:33:38;;;;;;;7.18;1.95;;;;;;;16.07;61.70;102512.34;4983528;28;20120;-71
2023/05/29 08:36:05;;;;;;;8.82;2.22;;;;;;;16.29;61.20;102508.56;4980525;28;20054;-71
2023/05/29 08:38:31;;;;;;;8.45;1.70;;;;;;;16.60;61.37;102511.81;4976064;28;20141;-71
2023/05/29 08:40:59;;;;;;;9.65;2.05;;;;;;;16.86;59.71;102508.53;4978773;28;20098;-71
2023/05/29 08:43:30;;;;;;;9.32;2.03;;;;;;;17.22;60.00;102507.78;4974716;28;20081;-71
2023/05/29 08:46:00;;;;;;;10.75;2.28;;;;;;;17.34;57.19;102507.41;4984396;28;20062;-71
2023/05/29 08:48:28;;;;;;;12.90;2.15;;;;;;;17.63;58.34;102514.31;4959163;28;20162;-71
2023/05/29 08:50:55;;;;;;;9.47;2.33;;;;;;;17.76;56.73;102512.13;4980702;28;20132;-71
2023/05/29 08:53:24;;;;;;;13.80;2.88;;;;;;;17.96;56.04;102512.00;4973884;28;20133;-71
2023/05/29 08:55:52;;;;;;;8.35;2.03;;;;;;;18.07;54.67;102508.25;4987016;28;20502;-71
2023/05/29 08:58:20;;;;;;;8.88;1.98;;;;;;;18.29;54.26;102518.38;4991150;28;20066;-71
2023/05/29 09:00:49;;;;;;;12.02;2.42;;;;;;;18.54;53.84;102521.16;4984438;28;20046;-71
2023/05/29 09:03:15;;;;;;;10.30;1.85;;;;;;;18.82;53.37;102511.22;4989753;28;20057;-71
2023/05/29 09:05:42;;;;;;;13.20;2.42;;;;;;;19.04;52.95;102515.09;4973831;28;20055;-71
2023/05/29 09:08:11;;;;;;;9.40;1.88;;;;;;;19.14;51.75;102513.13;4973086;28;20124;-71
2023/05/29 09:10:45;;;;;;;11.05;1.92;;;;;;;19.34;51.83;102516.34;4969840;28;20057;-71
2023/05/29 09:13:13;;;;;;;10.00;2.63;;;;;;;19.54;50.91;102519.56;4986242;28;20053;-71
2023/05/29 09:15:42;;;;;;;11.05;2.83;;;;;;;19.63;50.59;102519.56;4975984;28;20054;-72
2023/05/29 09:18:10;;;;;;;11.02;2.20;;;;;;;19.69;51.74;102511.72;4976937;28;20050;-72
2023/05/29 09:20:36;;;;;;;8.20;1.95;;;;;;;19.80;51.65;102521.25;4978921;28;20394;-73
2023/05/29 09:23:06;;;;;;;9.65;2.20;;;;;;;19.90;50.38;102508.59;4977517;28;20136;-72
2023/05/29 09:25:35;;;;;;;10.65;2.50;;;;;;;20.07;50.78;102516.56;4982327;28;20074;-72
2023/05/29 09:28:05;;;;;;;10.70;2.38;;;;;;;20.07;49.52;102511.25;4975583;28;20051;-72
2023/05/29 09:30:39;;;;;;;11.77;2.58;;;;;;;20.21;49.10;102510.56;4985796;28;20491;-72
2023/05/29 09:33:08;;;;;;;8.10;2.33;;;;;;;20.40;49.67;102516.53;4977395;28;20061;-73
2023/05/29 09:35:54;;;;;;;10.32;2.33;;;;;;;20.53;49.82;102512.31;4980720;28;20077;-72
2023/05/29 09:38:21;;;;;;;12.32;2.55;;;;;;;20.63;49.81;102508.66;4960005;28;20082;-73
2023/05/29 09:40:52;;;;;;;14.13;2.50;;;;;;;20.78;48.46;102516.75;4979062;28;20125;-73
2023/05/29 09:43:19;;;;;;;10.63;2.25;;;;;;;20.86;48.63;102514.06;4979145;28;20057;-72
2023/05/29 09:45:48;;;;;;;12.88;2.65;;;;;;;20.94;47.69;102512.19;4969396;28;20089;-73
2023/05/29 09:48:21;;;;;;;11.45;2.85;;;;;;;21.07;47.80;102513.44;4965460;28;20046;-73
2023/05/29 09:50:48;;;;;;;9.68;2.30;;;;;;;21.20;47.72;102515.56;4967861;28;20062;-73
2023/05/29 09:53:19;;;;;;;9.45;2.55;;;;;;;21.16;46.52;102512.41;4981975;28;20117;-73
2023/05/29 09:55:47;;;;;;;12.70;2.47;;;;;;;21.28;47.32;102502.16;4985944;28;20536;-73
2023/05/29 09:58:23;;;;;;;10.27;2.28;;;;;;;21.39;47.36;102504.44;4978410;28;20438;-73
2023/05/29 10:00:51;;;;;;;12.00;2.42;;;;;;;21.50;47.44;102501.38;4980472;28;20050;-73
2023/05/29 10:03:21;;;;;;;7.72;2.10;;;;;;;21.58;47.70;102487.16;4974158;28;20054;-73
2023/05/29 10:05:54;;;;;;;11.40;2.47;;;;;;;21.71;47.10;102500.69;4982430;28;20065;-73
2023/05/29 10:08:21;;;;;;;7.50;2.28;;;;;;;21.78;47.67;102497.31;4970013;28;20138;-73
2023/05/29 10:10:59;;;;;;;10.02;2.10;;;;;;;21.89;47.08;102497.72;4972774;28;20050;-72
2023/05/29 10:13:27;;;;;;;;;;;;;;;21.90;46.71;102494.03;4968796;28;20514;-72
2023/05/29 10:15:55;;;;;;;12.00;2.63;;;;;;;21.86;46.21;102491.91;4961589;28;19922;-73
2023/05/29 10:18:31;;;;;;;7.25;2.08;;;;;;;21.88;47.15;102497.91;4972710;28;20066;-74
2023/05/29 10:21:00;;;;;;;10.52;2.28;;;;;;;21.89;46.88;102491.53;4977702;28;20046;-73
2023/05/29 10:23:29;;;;;;;9.38;2.35;;;;;;;22.02;46.62;102493.59;4981470;28;20137;-73
2023/05/29 10:26:10;;;;;;;8.63;2.25;;;;;;;22.08;46.48;102491.03;4979291;28;20118;-73
2023/05/29 10:28:41;;;;;;;9.75;2.30;;;;;;;22.15;46.14;102499.16;4969467;28;20059;-74
2023/05/29 10:31:09;;;;;;;15.02;2.75;;;;;;;22.27;45.63;102494.22;4970021;28;20046;-74
2023/05/29 10:33:54;;;;;;;10.15;2.90;;;;;;;22.38;45.55;102503.59;4979104;28;20062;-74
2023/05/29 10:36:24;;;;;;;12.02;2.70;;;;;;;22.43;45.55;102496.69;4972103;28;20487;-74
2023/05/29 10:38:51;;;;;;;16.67;2.97;;;;;;;22.53;45.67;102504.44;4980238;28;20426;-73
2023/05/29 10:41:25;;;;;;;8.35;2.13;;;;;;;22.63;45.86;102486.25;4970805;28;20050;-74
2023/05/29 10:44:03;;;;;;;9.60;2.42;;;;;;;22.73;45.28;102491.31;4963340;28;20060;-73
2023/05/29 10:46:48;;;;;;;12.85;2.55;;;;;;;22.89;44.72;102487.59;4980401;28;20057;-74
2023/05/29 10:49:21;;;;;;;10.50;2.78;;;;;;;22.99;44.80;102489.97;4979688;28;20081;-74
2023/05/29 10:51:49;;;;;;;10.75;2.53;;;;;;;23.05;44.27;102490.09;4979247;28;20063;-74
2023/05/29 10:54:16;;;;;;;6.45;2.28;;;;;;;23.16;43.69;102488.75;4969144;28;20054;-74
2023/05/29 10:56:51;;;;;;;10.23;2.53;;;;;;;23.18;43.68;102492.06;4977766;28;20057;-74
2023/05/29 10:59:20;;;;;;;9.70;2.13;;;;;;;23.04;43.86;102474.22;4978162;28;20148;-75
2023/05/29 11:01:46;;;;;;;10.77;2.60;;;;;;;22.98;44.16;102480.31;4986231;28;20046;-74
2023/05/29 11:04:20;;;;;;;9.30;2.50;;;;;;;22.90;43.53;102476.72;4962769;28;20786;-74
2023/05/29 11:06:47;;;;;;;8.57;2.40;;;;;;;22.95;42.98;102480.66;4973663;28;20498;-75
2023/05/29 11:09:36;;;;;;;10.03;2.30;;;;;;;22.94;43.26;102479.03;4949051;28;20051;-75
2023/05/29 11:12:11;;;;;;;7.95;2.40;;;;;;;23.02;42.38;102478.91;4954829;28;20042;-74
2023/05/29 11:14:53;;;;;;;11.32;2.63;;;;;;;23.06;41.86;102483.72;4985823;28;20057;-73
2023/05/29 11:17:43;;;;;;;9.52;2.40;;;;;;;22.91;41.62;102472.19;4979056;28;20116;-74
2023/05/29 11:20:37;;;;;;;6.32;2.50;;;;;;;23.06;43.07;102478.34;4971154;28;20418;-74
2023/05/29 11:23:07;;;;;;;8.05;2.30;;;;;;;22.96;42.26;102483.16;4971866;28;20074;-73
2023/05/29 11:25:36;;;;;;;9.73;2.90;;;;;;;23.01;42.92;102480.75;4978742;28;20998;-74